createdAt,value
2023-02-14T00:00:51.264Z,83.81
2023-02-14T00:01:49.637Z,84.50
2023-02-14T00:02:46.440Z,84.06
2023-02-14T00:03:43.301Z,83.53
2023-02-14T00:04:44.181Z,82.74
2023-02-14T00:05:41.007Z,83.28
2023-02-14T00:06:39.069Z,83.71
2023-02-14T00:07:35.937Z,83.75
2023-02-14T00:08:32.769Z,84.08
2023-02-14T00:09:29.614Z,84.21
2023-02-14T00:10:26.380Z,83.45
2023-02-14T00:11:23.132Z,83.18
2023-02-14T00:12:19.967Z,83.14
2023-02-14T00:13:16.727Z,83.13
2023-02-14T00:14:33.448Z,83.89
2023-02-14T00:15:30.284Z,83.45
2023-02-14T00:16:27.145Z,83.79
2023-02-14T00:17:24.016Z,83.00
2023-02-14T00:18:20.907Z,84.02
2023-02-14T00:19:19.351Z,84.08
2023-02-14T00:20:16.246Z,83.50
2023-02-14T00:21:13.115Z,84.50
2023-02-14T00:22:10.001Z,84.88
2023-02-14T00:23:06.798Z,86.00
2023-02-14T00:24:13.530Z,85.95
2023-02-14T00:25:10.936Z,85.96
2023-02-14T00:26:15.017Z,85.63
2023-02-14T00:27:11.862Z,85.58
2023-02-14T00:28:08.566Z,85.26
2023-02-14T00:29:10.222Z,84.82
2023-02-14T00:30:09.328Z,84.86
2023-02-14T00:31:06.167Z,85.35
2023-02-14T00:32:04.100Z,84.98
2023-02-14T00:33:00.913Z,85.35
2023-02-14T00:33:57.748Z,85.68
2023-02-14T00:34:54.487Z,86.18
2023-02-14T00:35:51.355Z,86.41
2023-02-14T00:36:48.737Z,87.11
2023-02-14T00:37:48.567Z,86.41
2023-02-14T00:38:45.514Z,86.02
2023-02-14T00:39:42.276Z,87.60
2023-02-14T00:40:39.044Z,87.58
2023-02-14T00:41:35.894Z,86.78
2023-02-14T00:42:32.663Z,86.61
2023-02-14T00:43:29.937Z,87.90
2023-02-14T00:44:26.750Z,88.64
2023-02-14T00:45:23.554Z,87.65
2023-02-14T00:46:22.635Z,87.45
2023-02-14T00:47:19.394Z,87.71
2023-02-14T00:48:16.169Z,87.42
2023-02-14T00:49:13.161Z,87.90
2023-02-14T00:50:10.335Z,87.11
2023-02-14T00:51:07.716Z,87.57
2023-02-14T00:52:04.589Z,87.62
2023-02-14T00:53:01.338Z,87.83
2023-02-14T00:53:58.193Z,88.38
2023-02-14T00:54:54.948Z,88.73
2023-02-14T00:55:51.663Z,88.45
2023-02-14T00:56:48.544Z,88.29
2023-02-14T00:57:45.314Z,89.99
2023-02-14T00:58:42.236Z,90.13
2023-02-14T00:59:39.029Z,90.13
2023-02-14T01:00:35.853Z,89.77
2023-02-14T01:01:32.762Z,90.43
2023-02-14T01:02:29.536Z,90.74
2023-02-14T01:03:27.226Z,90.79
2023-02-14T01:04:24.222Z,91.21
2023-02-14T01:05:21.078Z,91.58
2023-02-14T01:06:17.999Z,92.26
2023-02-14T01:07:14.934Z,91.42
2023-02-14T01:08:11.773Z,92.49
2023-02-14T01:09:08.570Z,92.64
2023-02-14T01:10:05.758Z,91.81
2023-02-14T01:11:13.727Z,92.26
2023-02-14T01:12:10.529Z,92.38
2023-02-14T01:13:11.271Z,93.29
2023-02-14T01:14:08.091Z,92.85
2023-02-14T01:15:05.125Z,92.50
2023-02-14T01:16:07.542Z,93.81
2023-02-14T01:17:04.321Z,93.55
2023-02-14T01:18:01.086Z,93.97
2023-02-14T01:19:00.794Z,93.53
2023-02-14T01:19:57.528Z,93.59
2023-02-14T01:20:54.228Z,93.53
2023-02-14T01:21:50.984Z,93.96
2023-02-14T01:22:47.762Z,93.44
2023-02-14T01:23:46.350Z,93.21
2023-02-14T01:24:43.055Z,93.11
2023-02-14T01:25:40.264Z,92.14
2023-02-14T01:26:37.120Z,91.79
2023-02-14T01:27:33.973Z,91.82
2023-02-14T01:28:30.814Z,92.02
2023-02-14T01:29:27.606Z,91.72
2023-02-14T01:30:24.973Z,91.80
2023-02-14T01:31:33.198Z,91.55
2023-02-14T01:32:31.779Z,90.52
2023-02-14T01:33:28.591Z,90.17
2023-02-14T01:34:25.289Z,89.95
2023-02-14T01:35:22.244Z,89.60
2023-02-14T01:36:39.761Z,90.22
2023-02-14T01:37:37.167Z,90.05
2023-02-14T01:38:34.022Z,90.33
2023-02-14T01:39:30.923Z,89.82
2023-02-14T01:40:27.715Z,90.58
2023-02-14T01:41:27.677Z,90.39
2023-02-14T01:42:24.530Z,90.99
2023-02-14T01:43:21.346Z,90.74
2023-02-14T01:44:17.965Z,91.09
2023-02-14T01:45:19.951Z,90.64
2023-02-14T01:46:16.800Z,89.83
2023-02-14T01:47:15.738Z,90.15
2023-02-14T01:48:13.328Z,91.01
2023-02-14T01:49:22.051Z,90.88
2023-02-14T01:50:27.736Z,90.40
2023-02-14T01:51:25.039Z,90.56
2023-02-14T01:52:35.387Z,90.91
2023-02-14T01:53:32.297Z,90.59
2023-02-14T01:54:31.548Z,90.73
2023-02-14T01:55:36.853Z,90.21
2023-02-14T01:56:49.154Z,90.34
2023-02-14T01:57:55.275Z,89.71
2023-02-14T01:58:59.266Z,90.32
2023-02-14T02:00:20.409Z,90.99
2023-02-14T02:01:18.574Z,90.76
2023-02-14T02:02:15.777Z,90.56
2023-02-14T02:03:14.195Z,91.05
2023-02-14T02:04:23.823Z,90.37
2023-02-14T02:05:23.806Z,90.54
2023-02-14T02:06:36.077Z,90.62
2023-02-14T02:07:32.921Z,89.62
2023-02-14T02:08:29.699Z,89.66
2023-02-14T02:09:54.191Z,88.51
2023-02-14T02:10:50.962Z,88.66
2023-02-14T02:11:48.559Z,88.45
2023-02-14T02:12:48.198Z,88.40
2023-02-14T02:13:45.016Z,88.54
2023-02-14T02:14:42.993Z,88.86
2023-02-14T02:15:53.294Z,90.18
2023-02-14T02:16:52.841Z,90.22
2023-02-14T02:18:08.460Z,90.64
2023-02-14T02:19:22.719Z,90.23
2023-02-14T02:21:06.853Z,90.01
2023-02-14T02:22:29.797Z,90.71
2023-02-14T02:23:56.418Z,90.39
2023-02-14T02:25:23.141Z,90.47
2023-02-14T02:26:41.379Z,90.08
2023-02-14T02:28:14.652Z,90.14
2023-02-14T02:29:28.652Z,89.31
2023-02-14T02:30:46.077Z,90.07
2023-02-14T02:32:20.146Z,90.60
2023-02-14T02:33:46.653Z,91.12
2023-02-14T02:35:05.581Z,91.41
2023-02-14T02:36:24.126Z,90.58
2023-02-14T02:37:38.927Z,90.50
2023-02-14T02:38:43.948Z,90.56
2023-02-14T02:40:17.111Z,90.46
2023-02-14T02:41:47.857Z,90.49
2023-02-14T02:43:13.634Z,89.66
2023-02-14T02:44:41.121Z,89.50
2023-02-14T02:46:23.301Z,88.74
2023-02-14T02:47:34.077Z,87.87
2023-02-14T02:48:44.385Z,87.64
2023-02-14T02:50:25.413Z,88.14
2023-02-14T02:51:56.166Z,88.51
2023-02-14T02:53:06.445Z,88.96
2023-02-14T02:54:14.660Z,88.64
2023-02-14T02:55:26.304Z,88.80
2023-02-14T02:56:47.386Z,89.10
2023-02-14T02:57:48.441Z,89.12
2023-02-14T02:58:51.056Z,88.95
2023-02-14T02:59:51.065Z,88.70
2023-02-14T03:00:52.197Z,89.04
2023-02-14T03:02:03.847Z,89.59
2023-02-14T03:03:19.664Z,89.59
2023-02-14T03:04:36.296Z,89.77
2023-02-14T03:05:35.463Z,89.85
2023-02-14T03:06:32.902Z,90.47
2023-02-14T03:07:35.374Z,89.25
2023-02-14T03:08:32.213Z,89.21
2023-02-14T03:09:28.872Z,89.14
2023-02-14T03:10:30.497Z,88.79
2023-02-14T03:11:28.005Z,89.18
2023-02-14T03:12:33.356Z,89.15
2023-02-14T03:13:38.218Z,89.36
2023-02-14T03:14:50.704Z,89.08
2023-02-14T03:16:01.574Z,88.94
2023-02-14T03:17:11.780Z,88.55
2023-02-14T03:18:32.738Z,88.98
2023-02-14T03:19:34.869Z,89.33
2023-02-14T03:20:43.495Z,89.45
2023-02-14T03:22:05.324Z,89.60
2023-02-14T03:23:22.475Z,89.46
2023-02-14T03:24:35.313Z,89.00
2023-02-14T03:26:09.612Z,88.56
2023-02-14T03:27:11.441Z,89.12
2023-02-14T03:28:28.464Z,88.95
2023-02-14T03:29:43.629Z,89.76
2023-02-14T03:30:43.238Z,88.97
2023-02-14T03:32:02.718Z,88.76
2023-02-14T03:33:05.536Z,88.59
2023-02-14T03:34:32.439Z,89.09
2023-02-14T03:36:03.103Z,88.26
2023-02-14T03:37:38.572Z,88.94
2023-02-14T03:38:56.763Z,89.20
2023-02-14T03:40:19.985Z,90.16
2023-02-14T03:41:27.403Z,89.55
2023-02-14T03:42:35.739Z,89.10
2023-02-14T03:43:40.568Z,89.21
2023-02-14T03:44:41.164Z,89.99
2023-02-14T03:46:10.626Z,90.14
2023-02-14T03:47:19.764Z,89.52
2023-02-14T03:48:19.001Z,89.53
2023-02-14T03:49:22.484Z,88.74
2023-02-14T03:50:20.726Z,89.11
2023-02-14T03:51:21.237Z,89.23
2023-02-14T03:52:21.220Z,89.33
2023-02-14T03:53:26.037Z,89.39
2023-02-14T03:54:27.436Z,89.41
2023-02-14T03:55:50.539Z,89.36
2023-02-14T03:57:00.209Z,88.85
2023-02-14T03:58:13.061Z,88.41
2023-02-14T03:59:16.595Z,88.42
2023-02-14T04:00:14.897Z,87.26
2023-02-14T04:01:26.238Z,87.62
2023-02-14T04:02:42.848Z,87.47
2023-02-14T04:03:43.011Z,87.77
2023-02-14T04:04:45.561Z,88.52
2023-02-14T04:05:46.829Z,88.16
2023-02-14T04:06:44.113Z,87.77
2023-02-14T04:07:50.685Z,88.00
2023-02-14T04:08:47.462Z,88.54
2023-02-14T04:09:44.443Z,88.03
2023-02-14T04:10:44.344Z,88.18
2023-02-14T04:11:41.464Z,88.03
2023-02-14T04:12:38.422Z,88.02
2023-02-14T04:13:37.407Z,89.33
2023-02-14T04:14:34.188Z,89.05
2023-02-14T04:15:31.029Z,89.00
2023-02-14T04:16:28.384Z,89.13
2023-02-14T04:17:43.655Z,89.60
2023-02-14T04:18:59.311Z,90.56
2023-02-14T04:19:56.127Z,90.21
2023-02-14T04:20:52.977Z,90.02
2023-02-14T04:21:51.950Z,90.50
2023-02-14T04:22:51.568Z,90.34
2023-02-14T04:23:48.308Z,91.20
2023-02-14T04:24:45.118Z,91.51
2023-02-14T04:25:43.110Z,92.15
2023-02-14T04:26:39.875Z,92.35
2023-02-14T04:27:36.628Z,92.26
2023-02-14T04:28:33.718Z,92.14
2023-02-14T04:29:30.422Z,91.96
2023-02-14T04:30:27.326Z,92.27
2023-02-14T04:31:24.189Z,92.41
2023-02-14T04:32:22.767Z,91.81
2023-02-14T04:33:19.666Z,91.63
2023-02-14T04:34:23.656Z,92.21
2023-02-14T04:35:20.431Z,92.04
2023-02-14T04:36:17.403Z,91.71
2023-02-14T04:37:16.501Z,91.06
2023-02-14T04:38:13.400Z,91.35
2023-02-14T04:39:10.258Z,90.96
2023-02-14T04:40:07.750Z,90.74
2023-02-14T04:41:04.700Z,90.79
2023-02-14T04:42:02.248Z,90.67
2023-02-14T04:43:00.588Z,89.51
2023-02-14T04:43:57.335Z,89.88
2023-02-14T04:44:54.089Z,90.25
2023-02-14T04:45:50.860Z,90.20
2023-02-14T04:46:47.640Z,90.67
2023-02-14T04:47:44.499Z,90.36
2023-02-14T04:48:41.264Z,89.89
2023-02-14T04:49:38.260Z,90.10
2023-02-14T04:50:36.145Z,90.01
2023-02-14T04:51:32.917Z,89.82
2023-02-14T04:52:29.867Z,89.43
2023-02-14T04:53:26.656Z,90.00
2023-02-14T04:54:23.587Z,90.34
2023-02-14T04:55:20.416Z,90.64
2023-02-14T04:56:17.273Z,90.86
2023-02-14T04:57:14.091Z,91.61
2023-02-14T04:58:10.836Z,91.70
2023-02-14T04:59:08.951Z,91.08
2023-02-14T05:00:07.104Z,91.02
2023-02-14T05:01:04.086Z,90.39
2023-02-14T05:02:01.245Z,90.21
2023-02-14T05:02:58.115Z,89.87
2023-02-14T05:03:54.980Z,90.15
2023-02-14T05:04:51.728Z,89.94
2023-02-14T05:05:48.568Z,90.23
2023-02-14T05:06:45.429Z,90.79
2023-02-14T05:07:47.655Z,91.24
2023-02-14T05:08:44.586Z,91.35
2023-02-14T05:09:41.438Z,90.83
2023-02-14T05:10:38.225Z,91.09
2023-02-14T05:11:34.965Z,91.00
2023-02-14T05:12:31.797Z,91.20
2023-02-14T05:13:28.672Z,90.24
2023-02-14T05:14:25.462Z,90.80
2023-02-14T05:15:22.386Z,89.89
2023-02-14T05:16:19.332Z,89.71
2023-02-14T05:17:16.248Z,90.54
2023-02-14T05:18:12.977Z,91.67
2023-02-14T05:19:09.775Z,91.22
2023-02-14T05:20:07.977Z,90.02
2023-02-14T05:21:04.993Z,89.66
2023-02-14T05:22:01.841Z,90.10
2023-02-14T05:23:03.500Z,89.29
2023-02-14T05:24:01.313Z,90.14
2023-02-14T05:24:58.076Z,89.45
2023-02-14T05:25:54.902Z,89.41
2023-02-14T05:26:51.736Z,89.07
2023-02-14T05:27:48.600Z,90.07
2023-02-14T05:28:45.326Z,90.39
2023-02-14T05:29:42.032Z,91.13
2023-02-14T05:30:38.960Z,91.69
2023-02-14T05:31:36.321Z,91.82
2023-02-14T05:32:33.217Z,91.61
2023-02-14T05:33:30.044Z,92.18
2023-02-14T05:34:26.909Z,91.86
2023-02-14T05:35:24.170Z,91.41
2023-02-14T05:36:21.038Z,91.47
2023-02-14T05:37:17.898Z,91.05
2023-02-14T05:38:15.045Z,91.15
2023-02-14T05:39:14.692Z,90.87
2023-02-14T05:40:13.575Z,90.93
2023-02-14T05:41:10.505Z,90.14
2023-02-14T05:43:04.133Z,90.92
2023-02-14T05:44:00.864Z,90.71
2023-02-14T05:44:57.618Z,90.27
2023-02-14T05:45:54.748Z,90.54
2023-02-14T05:46:51.630Z,90.15
2023-02-14T05:47:49.739Z,89.70
2023-02-14T05:48:46.612Z,90.06
2023-02-14T05:49:43.336Z,91.29
2023-02-14T05:50:40.264Z,91.77
2023-02-14T05:51:39.883Z,92.93
2023-02-14T05:52:37.580Z,92.47
2023-02-14T05:53:34.620Z,92.86
2023-02-14T05:54:31.496Z,93.40
2023-02-14T05:55:28.608Z,92.75
2023-02-14T05:56:25.516Z,93.49
2023-02-14T05:57:22.303Z,92.77
2023-02-14T05:58:19.123Z,92.91
2023-02-14T05:59:15.907Z,92.18
2023-02-14T06:00:13.825Z,93.07
2023-02-14T06:01:10.620Z,92.67
2023-02-14T06:02:07.499Z,93.12
2023-02-14T06:03:04.372Z,93.26
2023-02-14T06:04:01.168Z,93.22
2023-02-14T06:04:58.061Z,93.29
2023-02-14T06:05:54.864Z,93.30
2023-02-14T06:06:51.694Z,93.98
2023-02-14T06:07:52.624Z,92.91
2023-02-14T06:08:50.209Z,92.13
2023-02-14T06:09:46.967Z,92.13
2023-02-14T06:10:43.796Z,91.85
2023-02-14T06:11:40.816Z,91.37
2023-02-14T06:12:37.552Z,90.65
2023-02-14T06:13:34.498Z,90.89
2023-02-14T06:14:31.232Z,91.93
2023-02-14T06:15:28.114Z,92.09
2023-02-14T06:16:25.008Z,91.86
2023-02-14T06:17:21.755Z,91.41
2023-02-14T06:18:18.561Z,91.28
2023-02-14T06:19:15.325Z,90.32
2023-02-14T06:20:12.483Z,89.63
2023-02-14T06:21:09.371Z,89.02
2023-02-14T06:22:06.160Z,89.47
2023-02-14T06:23:03.382Z,89.55
2023-02-14T06:24:00.159Z,89.85
2023-02-14T06:24:56.918Z,89.49
2023-02-14T06:25:53.676Z,88.03
2023-02-14T06:26:50.494Z,87.78
2023-02-14T06:27:49.253Z,87.18
2023-02-14T06:28:46.192Z,87.54
2023-02-14T06:29:42.924Z,86.22
2023-02-14T06:30:39.910Z,86.21
2023-02-14T06:31:36.879Z,85.53
2023-02-14T06:32:33.789Z,85.89
2023-02-14T06:33:30.578Z,85.99
2023-02-14T06:34:27.451Z,85.62
2023-02-14T06:35:24.271Z,86.00
2023-02-14T06:36:22.054Z,85.10
2023-02-14T06:37:20.113Z,86.00
2023-02-14T06:38:16.880Z,86.33
2023-02-14T06:39:13.654Z,86.17
2023-02-14T06:40:11.605Z,86.84
2023-02-14T06:41:10.905Z,87.30
2023-02-14T06:42:07.812Z,87.87
2023-02-14T06:43:04.820Z,88.04
2023-02-14T06:44:01.708Z,88.38
2023-02-14T06:44:58.551Z,89.11
2023-02-14T06:45:55.394Z,88.96
2023-02-14T06:46:52.175Z,89.31
2023-02-14T06:47:49.005Z,88.74
2023-02-14T06:48:45.909Z,89.16
2023-02-14T06:49:42.756Z,88.39
2023-02-14T06:50:39.575Z,89.00
2023-02-14T06:51:36.513Z,89.85
2023-02-14T06:52:34.151Z,89.54
2023-02-14T06:53:30.905Z,88.96
2023-02-14T06:54:27.697Z,89.19
2023-02-14T06:55:24.592Z,88.90
2023-02-14T06:56:21.477Z,88.48
2023-02-14T06:57:18.275Z,87.91
2023-02-14T06:58:15.618Z,88.61
2023-02-14T06:59:12.376Z,88.62
2023-02-14T07:00:10.257Z,89.52
2023-02-14T07:01:07.108Z,89.17
2023-02-14T07:02:04.078Z,89.91
2023-02-14T07:03:00.948Z,90.29
2023-02-14T07:03:58.083Z,90.97
2023-02-14T07:04:54.924Z,89.83
2023-02-14T07:05:52.983Z,90.48
2023-02-14T07:06:49.813Z,90.74
2023-02-14T07:07:46.745Z,91.25
2023-02-14T07:08:43.595Z,91.52
2023-02-14T07:09:40.428Z,91.69
2023-02-14T07:10:37.822Z,91.96
2023-02-14T07:11:34.700Z,91.92
2023-02-14T07:12:31.543Z,92.99
2023-02-14T07:13:28.409Z,93.12
2023-02-14T07:14:25.234Z,94.29
2023-02-14T07:15:22.025Z,94.61
2023-02-14T07:16:19.003Z,96.19
2023-02-14T07:17:15.870Z,97.83
2023-02-14T07:18:12.633Z,98.82
2023-02-14T07:19:09.444Z,99.72
2023-02-14T07:20:07.860Z,100.00
2023-02-14T07:21:04.717Z,100.00
2023-02-14T07:22:01.468Z,100.00
2023-02-14T07:22:58.377Z,100.00
2023-02-14T07:23:55.130Z,100.00
2023-02-14T07:24:51.863Z,100.00
2023-02-14T07:25:48.705Z,100.00
2023-02-14T07:26:48.264Z,100.00
2023-02-14T07:27:45.035Z,100.00
2023-02-14T07:28:44.919Z,100.00
2023-02-14T07:29:41.956Z,100.00
2023-02-14T07:30:38.762Z,100.00
2023-02-14T07:31:35.808Z,100.00
2023-02-14T07:32:32.728Z,100.00
2023-02-14T07:33:29.658Z,100.00
2023-02-14T07:34:27.416Z,100.00
2023-02-14T07:35:24.319Z,100.00
2023-02-14T07:36:21.165Z,100.00
2023-02-14T07:37:19.226Z,100.00
2023-02-14T07:38:16.073Z,100.00
2023-02-14T07:39:12.797Z,100.00
2023-02-14T07:40:14.665Z,100.00
2023-02-14T07:41:12.259Z,100.00
2023-02-14T07:42:09.136Z,100.00
2023-02-14T07:43:06.461Z,100.00
2023-02-14T07:44:03.268Z,100.00
2023-02-14T07:45:04.846Z,100.00
2023-02-14T07:46:03.787Z,100.00
2023-02-14T07:47:00.622Z,100.00
2023-02-14T07:48:01.992Z,100.00
2023-02-14T07:48:58.774Z,100.00
2023-02-14T07:49:55.610Z,100.00
2023-02-14T07:50:52.792Z,100.00
2023-02-14T07:51:49.638Z,100.00
2023-02-14T07:52:46.959Z,100.00
2023-02-14T07:53:44.022Z,100.00
2023-02-14T07:54:40.867Z,100.00
2023-02-14T07:55:37.672Z,100.00
2023-02-14T07:56:34.523Z,100.00
2023-02-14T07:57:31.345Z,100.00
2023-02-14T07:58:28.095Z,100.00
2023-02-14T07:59:26.085Z,100.00
2023-02-14T08:00:23.166Z,100.00
2023-02-14T08:01:21.031Z,100.00
2023-02-14T08:02:17.891Z,100.00
2023-02-14T08:03:14.949Z,100.00
2023-02-14T08:04:13.974Z,100.00
2023-02-14T08:05:10.976Z,100.00
2023-02-14T08:06:07.872Z,100.00
2023-02-14T08:07:05.799Z,100.00
2023-02-14T08:08:02.619Z,100.00
2023-02-14T08:08:59.723Z,100.00
2023-02-14T08:09:56.594Z,100.00
2023-02-14T08:10:53.432Z,100.00
2023-02-14T08:12:14.861Z,100.00
2023-02-14T08:13:11.574Z,100.00
2023-02-14T08:14:08.463Z,100.00
2023-02-14T08:15:24.333Z,100.00
2023-02-14T08:16:21.152Z,100.00
2023-02-14T08:17:18.107Z,100.00
2023-02-14T08:18:15.864Z,100.00
2023-02-14T08:19:12.824Z,100.00
2023-02-14T08:20:10.071Z,100.00
2023-02-14T08:21:09.541Z,100.00
2023-02-14T08:22:07.546Z,100.00
2023-02-14T08:23:04.470Z,100.00
2023-02-14T08:24:01.336Z,100.00
2023-02-14T08:25:01.477Z,100.00
2023-02-14T08:25:58.571Z,100.00
2023-02-14T08:26:55.437Z,100.00
2023-02-14T08:27:52.294Z,100.00
2023-02-14T08:28:49.068Z,100.00
2023-02-14T08:29:46.014Z,100.00
2023-02-14T08:30:44.757Z,100.00
2023-02-14T08:31:41.707Z,100.00
2023-02-14T08:32:38.577Z,100.00
2023-02-14T08:33:35.757Z,100.00
2023-02-14T08:34:34.092Z,100.00
2023-02-14T08:35:31.143Z,100.00
2023-02-14T08:36:27.939Z,100.00
2023-02-14T08:37:24.654Z,100.00
2023-02-14T08:38:21.911Z,100.00
2023-02-14T08:39:18.849Z,100.00
2023-02-14T08:40:15.682Z,100.00
2023-02-14T08:41:12.418Z,100.00
2023-02-14T08:42:10.700Z,100.00
2023-02-14T08:43:08.258Z,100.00
2023-02-14T08:44:05.291Z,100.00
2023-02-14T08:45:02.003Z,100.00
2023-02-14T08:45:59.234Z,100.00
2023-02-14T08:46:56.445Z,100.00
2023-02-14T08:47:53.290Z,100.00
2023-02-14T08:48:50.295Z,100.00
2023-02-14T08:49:47.139Z,100.00
2023-02-14T08:50:43.958Z,100.00
2023-02-14T08:51:40.739Z,100.00
2023-02-14T08:52:43.887Z,100.00
2023-02-14T08:53:41.833Z,100.00
2023-02-14T08:54:38.576Z,100.00
2023-02-14T08:55:36.493Z,100.00
2023-02-14T08:56:33.402Z,100.00
2023-02-14T08:57:30.129Z,100.00
2023-02-14T08:58:26.909Z,100.00
2023-02-14T08:59:23.949Z,100.00
2023-02-14T09:00:21.417Z,100.00
2023-02-14T09:01:18.374Z,100.00
2023-02-14T09:02:16.416Z,100.00
2023-02-14T09:03:13.179Z,100.00
2023-02-14T09:04:10.017Z,100.00
2023-02-14T09:05:09.734Z,100.00
2023-02-14T09:06:09.963Z,100.00
2023-02-14T09:07:06.835Z,100.00
2023-02-14T09:08:04.004Z,100.00
2023-02-14T09:09:02.581Z,100.00
2023-02-14T09:09:59.559Z,100.00
2023-02-14T09:10:56.482Z,100.00
2023-02-14T09:11:53.328Z,100.00
2023-02-14T09:12:50.149Z,100.00
2023-02-14T09:13:47.526Z,100.00
2023-02-14T09:14:44.925Z,100.00
2023-02-14T09:15:41.794Z,100.00
2023-02-14T09:16:38.695Z,100.00
2023-02-14T09:17:36.642Z,100.00
2023-02-14T09:18:33.795Z,100.00
2023-02-14T09:19:30.529Z,100.00
2023-02-14T09:20:27.380Z,100.00
2023-02-14T09:21:27.047Z,100.00
2023-02-14T09:22:24.060Z,100.00
2023-02-14T09:23:20.814Z,100.00
2023-02-14T09:24:17.579Z,100.00
2023-02-14T09:25:14.951Z,100.00
2023-02-14T09:26:17.232Z,100.00
2023-02-14T09:27:14.162Z,100.00
2023-02-14T09:28:10.974Z,100.00
2023-02-14T09:29:07.784Z,100.00
2023-02-14T09:30:09.521Z,100.00
2023-02-14T09:31:19.630Z,100.00
2023-02-14T09:32:16.824Z,100.00
2023-02-14T09:33:16.007Z,100.00
2023-02-14T09:34:15.706Z,100.00
2023-02-14T09:35:30.987Z,100.00
2023-02-14T09:36:46.209Z,100.00
2023-02-14T09:38:01.778Z,100.00
2023-02-14T09:38:58.509Z,100.00
2023-02-14T09:39:55.358Z,100.00
2023-02-14T09:40:52.100Z,100.00
2023-02-14T09:41:48.842Z,100.00
2023-02-14T09:42:56.800Z,100.00
2023-02-14T09:44:31.606Z,100.00
2023-02-14T09:45:32.347Z,100.00
2023-02-14T09:46:31.039Z,100.00
2023-02-14T09:47:42.064Z,100.00
2023-02-14T09:48:45.115Z,100.00
2023-02-14T09:49:43.074Z,100.00
2023-02-14T09:50:43.919Z,100.00
2023-02-14T09:51:50.067Z,100.00
2023-02-14T09:52:56.365Z,100.00
2023-02-14T09:54:02.917Z,100.00
2023-02-14T09:55:02.849Z,100.00
2023-02-14T09:56:05.130Z,100.00
2023-02-14T09:57:07.801Z,100.00
2023-02-14T09:58:27.864Z,100.00
2023-02-14T09:59:36.438Z,100.00
2023-02-14T10:01:02.438Z,100.00
2023-02-14T10:02:23.783Z,100.00
2023-02-14T10:03:29.619Z,100.00
2023-02-14T10:04:57.516Z,100.00
2023-02-14T10:06:15.658Z,100.00
2023-02-14T10:07:20.629Z,100.00
2023-02-14T10:08:19.992Z,100.00
2023-02-14T10:09:37.593Z,100.00
2023-02-14T10:10:46.614Z,100.00
2023-02-14T10:11:47.805Z,100.00
2023-02-14T10:13:00.549Z,100.00
2023-02-14T10:14:10.599Z,100.00
2023-02-14T10:15:26.247Z,100.00
2023-02-14T10:16:27.447Z,100.00
2023-02-14T10:17:48.663Z,100.00
2023-02-14T10:19:03.350Z,100.00
2023-02-14T10:20:19.402Z,100.00
2023-02-14T10:21:34.182Z,100.00
2023-02-14T10:22:50.182Z,100.00
2023-02-14T10:23:58.071Z,100.00
2023-02-14T10:25:06.250Z,100.00
2023-02-14T10:26:49.804Z,100.00
2023-02-14T10:27:46.036Z,100.00
2023-02-14T10:28:47.163Z,100.00
2023-02-14T10:29:44.100Z,100.00
2023-02-14T10:30:52.071Z,100.00
2023-02-14T10:32:00.634Z,100.00
2023-02-14T10:33:16.247Z,100.00
2023-02-14T10:34:37.650Z,100.00
2023-02-14T10:35:55.710Z,100.00
2023-02-14T10:37:01.198Z,100.00
2023-02-14T10:38:28.140Z,100.00
2023-02-14T10:40:03.707Z,100.00
2023-02-14T10:41:06.343Z,100.00
2023-02-14T10:42:11.638Z,100.00
2023-02-14T10:43:28.585Z,100.00
2023-02-14T10:44:34.164Z,100.00
2023-02-14T10:45:52.216Z,100.00
2023-02-14T10:47:09.717Z,100.00
2023-02-14T10:48:40.342Z,100.00
2023-02-14T10:50:00.387Z,100.00
2023-02-14T10:51:33.370Z,100.00
2023-02-14T10:52:37.857Z,100.00
2023-02-14T10:53:50.688Z,100.00
2023-02-14T10:55:00.397Z,100.00
2023-02-14T10:56:08.997Z,100.00
2023-02-14T10:57:27.179Z,100.00
2023-02-14T10:58:29.790Z,100.00
2023-02-14T10:59:49.922Z,100.00
2023-02-14T11:00:58.410Z,100.00
2023-02-14T11:02:00.163Z,100.00
2023-02-14T11:03:01.370Z,100.00
2023-02-14T11:04:06.560Z,100.00
2023-02-14T11:05:07.778Z,100.00
2023-02-14T11:06:07.313Z,100.00
2023-02-14T11:07:04.095Z,100.00
2023-02-14T11:08:15.950Z,100.00
2023-02-14T11:09:19.787Z,100.00
2023-02-14T11:10:24.296Z,100.00
2023-02-14T11:11:25.160Z,100.00
2023-02-14T11:12:41.917Z,100.00
2023-02-14T11:13:40.994Z,100.00
2023-02-14T11:14:42.609Z,100.00
2023-02-14T11:15:40.489Z,100.00
2023-02-14T11:16:37.822Z,100.00
2023-02-14T11:17:37.503Z,100.00
2023-02-14T11:18:40.988Z,100.00
2023-02-14T11:19:38.888Z,100.00
2023-02-14T11:20:37.113Z,100.00
2023-02-14T11:21:42.133Z,100.00
2023-02-14T11:22:38.951Z,100.00
2023-02-14T11:23:39.531Z,100.00
2023-02-14T11:24:41.665Z,99.16
2023-02-14T11:25:42.322Z,98.15
2023-02-14T11:26:39.463Z,98.18
2023-02-14T11:27:37.922Z,98.20
2023-02-14T11:28:35.948Z,98.20
2023-02-14T11:29:52.516Z,97.11
2023-02-14T11:30:52.302Z,97.19
2023-02-14T11:31:49.548Z,96.24
2023-02-14T11:32:59.032Z,96.58
2023-02-14T11:33:56.964Z,95.02
2023-02-14T11:35:01.525Z,95.57
2023-02-14T11:36:00.870Z,94.86
2023-02-14T11:37:00.242Z,95.53
2023-02-14T11:38:02.328Z,95.24
2023-02-14T11:39:17.499Z,94.54
2023-02-14T11:40:30.596Z,94.30
2023-02-14T11:41:27.522Z,93.07
2023-02-14T11:42:36.330Z,92.55
2023-02-14T11:43:37.201Z,91.44
2023-02-14T11:44:43.927Z,91.18
2023-02-14T11:45:43.800Z,91.17
2023-02-14T11:46:52.762Z,91.50
2023-02-14T11:48:06.915Z,90.49
2023-02-14T11:49:26.203Z,90.05
2023-02-14T11:50:24.883Z,90.00
2023-02-14T11:51:31.405Z,89.16
2023-02-14T11:52:31.613Z,89.20
2023-02-14T11:53:53.898Z,89.16
2023-02-14T11:54:50.788Z,89.41
2023-02-14T11:55:56.067Z,88.86
2023-02-14T11:57:04.196Z,88.71
2023-02-14T11:58:05.527Z,90.25
2023-02-14T11:59:05.651Z,89.98
2023-02-14T12:00:17.392Z,90.33
2023-02-14T12:01:25.053Z,90.94
2023-02-14T12:02:46.222Z,89.91
2023-02-14T12:03:49.256Z,89.72
2023-02-14T12:04:50.014Z,89.87
2023-02-14T12:05:50.932Z,90.09
2023-02-14T12:06:48.114Z,89.84
2023-02-14T12:07:49.262Z,90.03
2023-02-14T12:08:48.266Z,90.47
2023-02-14T12:09:46.973Z,89.71
2023-02-14T12:10:43.845Z,90.81
2023-02-14T12:11:43.762Z,91.08
2023-02-14T12:12:48.741Z,91.16
2023-02-14T12:13:57.675Z,90.88
2023-02-14T12:15:21.394Z,90.54
2023-02-14T12:16:30.281Z,90.31
2023-02-14T12:17:37.998Z,90.69
2023-02-14T12:18:41.065Z,90.87
2023-02-14T12:20:08.463Z,90.64
2023-02-14T12:21:20.495Z,89.99
2023-02-14T12:22:28.301Z,89.81
2023-02-14T12:23:28.097Z,90.58
2023-02-14T12:24:38.446Z,91.35
2023-02-14T12:25:50.714Z,90.86
2023-02-14T12:27:27.397Z,91.49
2023-02-14T12:28:39.527Z,91.70
2023-02-14T12:29:55.030Z,92.39
2023-02-14T12:30:52.095Z,91.86
2023-02-14T12:31:50.450Z,91.55
2023-02-14T12:32:51.288Z,91.20
2023-02-14T12:33:50.511Z,91.77
2023-02-14T12:34:49.122Z,91.81
2023-02-14T12:36:17.835Z,91.15
2023-02-14T12:37:26.122Z,91.49
2023-02-14T12:38:31.174Z,90.92
2023-02-14T12:39:48.529Z,90.82
2023-02-14T12:40:54.351Z,91.59
2023-02-14T12:42:11.805Z,90.97
2023-02-14T12:43:33.389Z,90.50
2023-02-14T12:44:40.159Z,90.45
2023-02-14T12:45:50.981Z,90.52
2023-02-14T12:47:16.158Z,90.25
2023-02-14T12:48:40.658Z,88.96
2023-02-14T12:50:00.986Z,88.17
2023-02-14T12:51:12.966Z,88.73
2023-02-14T12:52:38.866Z,89.55
2023-02-14T12:54:00.118Z,89.31
2023-02-14T12:55:19.736Z,89.79
2023-02-14T12:56:39.270Z,92.01
2023-02-14T12:57:38.821Z,90.72
2023-02-14T12:59:16.882Z,91.69
2023-02-14T13:00:35.695Z,91.75
2023-02-14T13:01:47.209Z,91.52
2023-02-14T13:03:22.674Z,93.26
2023-02-14T13:04:50.182Z,92.69
2023-02-14T13:05:53.561Z,93.65
2023-02-14T13:07:26.411Z,93.10
2023-02-14T13:08:41.805Z,92.87
2023-02-14T13:10:14.130Z,92.43
2023-02-14T13:11:26.341Z,93.62
2023-02-14T13:12:49.536Z,93.53
2023-02-14T13:14:16.246Z,92.83
2023-02-14T13:15:38.137Z,92.58
2023-02-14T13:17:03.568Z,92.96
2023-02-14T13:18:17.451Z,93.78
2023-02-14T13:19:54.898Z,93.70
2023-02-14T13:21:01.143Z,92.75
2023-02-14T13:22:01.463Z,92.93
2023-02-14T13:23:06.067Z,93.92